Terminal Aerodrome Forecast
Issued by NWS Jackson, MS

Home | Current Version | Previous Version | Text Only | Print | Product List | Glossary On
Versions: 1 2 3 4 5 6 7 8 9 10 11 12 13 14
000
FTUS44 KJAN 191100
TAFGWO
TAF
KGWO 191139Z 1912/2012 02003KT 2SM BR OVC002
     FM191400 09004KT 3SM BR SKC
     FM191500 12005KT P6SM FEW050
     FM200700 00000KT 4SM BR SKC=

USA.gov is the U.S. government's official web portal to all federal, state and local government web resources and services.